SWA169 KDCA-KEWR
Flight info
| Callsign | SWA169 |
|---|---|
| Flight time | 0h 38m |
| Altitude | 25000 |
| Route | SOOKI6 SWANN PHLBO4 |
| Aircraft | B738/M-SDE2E3FGHIRWXY/LB1 |
Departure
| Time | 2026-05-07 19:19 |
|---|---|
| Airport | Ronald Reagan Washington National Airport (KDCA) |
Arrival
| Time | 2026-05-07 19:58 |
|---|---|
| Airport | Newark Liberty International Airport (KEWR) |
| Time | Latitude | Longitude | Altitude | Speed | Heading |
|---|---|---|---|---|---|
| 2026-05-07 18:49 | 38.84723 | -77.04215 | 22 ft | 0 kts | 232° |
| 2026-05-07 19:07 | 38.84732 | -77.04200 | 24 ft | 2 kts | 232° |
| 2026-05-07 19:08 | 38.84743 | -77.04185 | 26 ft | 2 kts | 180° |
| 2026-05-07 19:08 | 38.84759 | -77.04190 | 23 ft | 2 kts | 154° |
| 2026-05-07 19:08 | 38.84770 | -77.04197 | 23 ft | 0 kts | 145° |
| 2026-05-07 19:10 | 38.84758 | -77.04187 | 23 ft | 7 kts | 145° |
| 2026-05-07 19:11 | 38.84716 | -77.04154 | 24 ft | 7 kts | 156° |
| 2026-05-07 19:11 | 38.84687 | -77.04138 | 22 ft | 0 kts | 158° |
| 2026-05-07 19:13 | 38.84666 | -77.04127 | 24 ft | 10 kts | 156° |
| 2026-05-07 19:13 | 38.84642 | -77.04057 | 21 ft | 9 kts | 76° |
| 2026-05-07 19:13 | 38.84692 | -77.04003 | 20 ft | 12 kts | 27° |
| 2026-05-07 19:14 | 38.84793 | -77.03951 | 19 ft | 17 kts | 17° |
| 2026-05-07 19:14 | 38.84913 | -77.03949 | 19 ft | 17 kts | 354° |
| 2026-05-07 19:14 | 38.85031 | -77.03971 | 17 ft | 17 kts | 349° |
| 2026-05-07 19:14 | 38.85144 | -77.03979 | 18 ft | 16 kts | 4° |
| 2026-05-07 19:15 | 38.85254 | -77.03987 | 21 ft | 15 kts | 355° |
| 2026-05-07 19:15 | 38.85359 | -77.03998 | 20 ft | 15 kts | 355° |
| 2026-05-07 19:15 | 38.85458 | -77.04010 | 21 ft | 14 kts | 355° |
| 2026-05-07 19:15 | 38.85550 | -77.03993 | 22 ft | 14 kts | 38° |
| 2026-05-07 19:16 | 38.85637 | -77.03967 | 23 ft | 13 kts | 355° |
| 2026-05-07 19:16 | 38.85726 | -77.03974 | 26 ft | 13 kts | 355° |
| 2026-05-07 19:16 | 38.85813 | -77.03985 | 25 ft | 12 kts | 354° |
| 2026-05-07 19:16 | 38.85897 | -77.03990 | 24 ft | 12 kts | 11° |
| 2026-05-07 19:17 | 38.85979 | -77.03968 | 22 ft | 12 kts | 12° |
| 2026-05-07 19:17 | 38.86058 | -77.03942 | 20 ft | 11 kts | 25° |
| 2026-05-07 19:17 | 38.86066 | -77.03898 | 19 ft | 5 kts | 139° |
| 2026-05-07 19:17 | 38.86037 | -77.03876 | 20 ft | 5 kts | 154° |
| 2026-05-07 19:18 | 38.86006 | -77.03863 | 21 ft | 5 kts | 169° |
| 2026-05-07 19:18 | 38.85974 | -77.03859 | 21 ft | 5 kts | 175° |
| 2026-05-07 19:18 | 38.85867 | -77.03848 | 25 ft | 41 kts | 175° |
| 2026-05-07 19:18 | 38.85321 | -77.03793 | 18 ft | 114 kts | 175° |
| 2026-05-07 19:19 | 38.84356 | -77.03687 | 227 ft | 152 kts | 175° |
| 2026-05-07 19:19 | 38.83252 | -77.03576 | 907 ft | 168 kts | 176° |
| 2026-05-07 19:19 | 38.82043 | -77.03474 | 1638 ft | 179 kts | 176° |
| 2026-05-07 19:19 | 38.80790 | -77.03344 | 2334 ft | 188 kts | 175° |
| 2026-05-07 19:20 | 38.79449 | -77.03182 | 3118 ft | 197 kts | 175° |
| 2026-05-07 19:20 | 38.78090 | -77.02997 | 3885 ft | 202 kts | 175° |
| 2026-05-07 19:20 | 38.76662 | -77.02790 | 4539 ft | 212 kts | 177° |
| 2026-05-07 19:20 | 38.75192 | -77.02457 | 5167 ft | 219 kts | 160° |
| 2026-05-07 19:21 | 38.73955 | -77.01269 | 5744 ft | 229 kts | 130° |
| 2026-05-07 19:21 | 38.73236 | -76.99449 | 6403 ft | 230 kts | 104° |
| 2026-05-07 19:21 | 38.73110 | -76.97429 | 7077 ft | 228 kts | 85° |
| 2026-05-07 19:21 | 38.73413 | -76.95415 | 7567 ft | 238 kts | 70° |
| 2026-05-07 19:22 | 38.74090 | -76.93382 | 7801 ft | 256 kts | 56° |
| 2026-05-07 19:22 | 38.75190 | -76.91630 | 8329 ft | 252 kts | 36° |
| 2026-05-07 19:22 | 38.76532 | -76.90332 | 9227 ft | 232 kts | 22° |
| 2026-05-07 19:22 | 38.77949 | -76.89361 | 9767 ft | 239 kts | 18° |
| 2026-05-07 19:23 | 38.79488 | -76.88287 | 9949 ft | 264 kts | 21° |
| 2026-05-07 19:23 | 38.81147 | -76.87063 | 10119 ft | 287 kts | 23° |
| 2026-05-07 19:23 | 38.82927 | -76.85705 | 10274 ft | 307 kts | 24° |
| 2026-05-07 19:23 | 38.85991 | -76.83325 | 10792 ft | 324 kts | 25° |
| 2026-05-07 19:24 | 38.87839 | -76.81571 | 11219 ft | 335 kts | 35° |
| 2026-05-07 19:24 | 38.89569 | -76.79546 | 11680 ft | 340 kts | 41° |
| 2026-05-07 19:24 | 38.90986 | -76.77107 | 12088 ft | 349 kts | 52° |
| 2026-05-07 19:24 | 38.92466 | -76.74637 | 12569 ft | 350 kts | 46° |
| 2026-05-07 19:25 | 38.96275 | -76.69131 | 13643 ft | 369 kts | 44° |
| 2026-05-07 19:25 | 39.00246 | -76.63396 | 15574 ft | 370 kts | 44° |
| 2026-05-07 19:25 | 39.07206 | -76.53074 | 18343 ft | 392 kts | 45° |
| 2026-05-07 19:25 | 39.11655 | -76.46386 | 19713 ft | 409 kts | 45° |
| 2026-05-07 19:26 | 39.13526 | -76.43564 | 20210 ft | 418 kts | 45° |
| 2026-05-07 19:26 | 39.15428 | -76.40691 | 20768 ft | 425 kts | 45° |
| 2026-05-07 19:26 | 39.17371 | -76.37758 | 20944 ft | 438 kts | 45° |
| 2026-05-07 19:26 | 39.19398 | -76.34703 | 20943 ft | 458 kts | 45° |
| 2026-05-07 19:27 | 39.21508 | -76.31520 | 20949 ft | 475 kts | 46° |
| 2026-05-07 19:27 | 39.23658 | -76.28271 | 20938 ft | 490 kts | 46° |
| 2026-05-07 19:27 | 39.25885 | -76.24897 | 20933 ft | 496 kts | 46° |
| 2026-05-07 19:27 | 39.28116 | -76.21506 | 20913 ft | 495 kts | 46° |
| 2026-05-07 19:28 | 39.30343 | -76.18120 | 20881 ft | 494 kts | 46° |
| 2026-05-07 19:28 | 39.32562 | -76.14743 | 20884 ft | 493 kts | 46° |
| 2026-05-07 19:28 | 39.34782 | -76.11364 | 20885 ft | 493 kts | 46° |
| 2026-05-07 19:28 | 39.37005 | -76.07980 | 20886 ft | 494 kts | 46° |
| 2026-05-07 19:29 | 39.39224 | -76.04600 | 20892 ft | 494 kts | 46° |
| 2026-05-07 19:29 | 39.41420 | -76.01252 | 20894 ft | 495 kts | 46° |
| 2026-05-07 19:29 | 39.43644 | -75.97856 | 20903 ft | 495 kts | 46° |
| 2026-05-07 19:29 | 39.45873 | -75.94450 | 20896 ft | 496 kts | 46° |
| 2026-05-07 19:30 | 39.48102 | -75.91040 | 20893 ft | 497 kts | 46° |
| 2026-05-07 19:30 | 39.50332 | -75.87624 | 20897 ft | 497 kts | 46° |
| 2026-05-07 19:30 | 39.52564 | -75.84201 | 20894 ft | 497 kts | 46° |
| 2026-05-07 19:30 | 39.54794 | -75.80777 | 20891 ft | 497 kts | 46° |
| 2026-05-07 19:31 | 39.57015 | -75.77362 | 20888 ft | 495 kts | 46° |
| 2026-05-07 19:31 | 39.59205 | -75.73992 | 20887 ft | 495 kts | 46° |
| 2026-05-07 19:31 | 39.61424 | -75.70575 | 20890 ft | 496 kts | 46° |
| 2026-05-07 19:31 | 39.63651 | -75.67142 | 20880 ft | 497 kts | 47° |
| 2026-05-07 19:32 | 39.65876 | -75.63709 | 20466 ft | 497 kts | 47° |
| 2026-05-07 19:32 | 39.68104 | -75.60320 | 19973 ft | 490 kts | 44° |
| 2026-05-07 19:32 | 39.70487 | -75.57230 | 19548 ft | 481 kts | 39° |
| 2026-05-07 19:32 | 39.72938 | -75.54299 | 19063 ft | 476 kts | 38° |
| 2026-05-07 19:33 | 39.75385 | -75.51440 | 18573 ft | 470 kts | 37° |
| 2026-05-07 19:33 | 39.77771 | -75.48646 | 18077 ft | 465 kts | 38° |
| 2026-05-07 19:33 | 39.80149 | -75.45829 | 17522 ft | 460 kts | 38° |
| 2026-05-07 19:33 | 39.82491 | -75.43024 | 17003 ft | 455 kts | 39° |
| 2026-05-07 19:34 | 39.84792 | -75.40247 | 16508 ft | 449 kts | 39° |
| 2026-05-07 19:34 | 39.87064 | -75.37493 | 16023 ft | 443 kts | 39° |
| 2026-05-07 19:34 | 39.89306 | -75.34773 | 15547 ft | 438 kts | 39° |
| 2026-05-07 19:34 | 39.91515 | -75.32091 | 15175 ft | 431 kts | 39° |
| 2026-05-07 19:35 | 39.93696 | -75.29444 | 14721 ft | 426 kts | 39° |
| 2026-05-07 19:35 | 39.95824 | -75.26859 | 14269 ft | 422 kts | 39° |
| 2026-05-07 19:35 | 39.97962 | -75.24261 | 13834 ft | 418 kts | 39° |
| 2026-05-07 19:35 | 40.00081 | -75.21681 | 13341 ft | 415 kts | 39° |
| 2026-05-07 19:36 | 40.02176 | -75.19128 | 12839 ft | 411 kts | 39° |
| 2026-05-07 19:36 | 40.04254 | -75.16593 | 12362 ft | 407 kts | 39° |
| 2026-05-07 19:36 | 40.06311 | -75.14081 | 11882 ft | 403 kts | 39° |
| 2026-05-07 19:36 | 40.08346 | -75.11596 | 11434 ft | 398 kts | 39° |
| 2026-05-07 19:37 | 40.10346 | -75.09150 | 11190 ft | 388 kts | 39° |
| 2026-05-07 19:37 | 40.12283 | -75.06776 | 11066 ft | 375 kts | 38° |
| 2026-05-07 19:37 | 40.14125 | -75.04517 | 11018 ft | 361 kts | 38° |
| 2026-05-07 19:37 | 40.15916 | -75.02319 | 11010 ft | 346 kts | 38° |
| 2026-05-07 19:38 | 40.17641 | -75.00203 | 11015 ft | 336 kts | 38° |
| 2026-05-07 19:38 | 40.19348 | -74.98113 | 11027 ft | 336 kts | 38° |
| 2026-05-07 19:38 | 40.21055 | -74.96024 | 11012 ft | 335 kts | 38° |
| 2026-05-07 19:38 | 40.22775 | -74.93915 | 10557 ft | 344 kts | 38° |
| 2026-05-07 19:39 | 40.24521 | -74.91769 | 10186 ft | 343 kts | 37° |
| 2026-05-07 19:39 | 40.26204 | -74.89629 | 10123 ft | 330 kts | 40° |
| 2026-05-07 19:39 | 40.27715 | -74.87515 | 9995 ft | 316 kts | 41° |
| 2026-05-07 19:39 | 40.29183 | -74.85410 | 9826 ft | 308 kts | 41° |
| 2026-05-07 19:40 | 40.30619 | -74.83365 | 9434 ft | 305 kts | 41° |
| 2026-05-07 19:40 | 40.32061 | -74.81331 | 9144 ft | 303 kts | 41° |
| 2026-05-07 19:40 | 40.33483 | -74.79330 | 8949 ft | 298 kts | 41° |
| 2026-05-07 19:40 | 40.34888 | -74.77354 | 8688 ft | 295 kts | 41° |
| 2026-05-07 19:41 | 40.36279 | -74.75396 | 8449 ft | 292 kts | 42° |
| 2026-05-07 19:41 | 40.37655 | -74.73456 | 8226 ft | 288 kts | 42° |
| 2026-05-07 19:41 | 40.38998 | -74.71568 | 7993 ft | 285 kts | 43° |
| 2026-05-07 19:41 | 40.40340 | -74.69680 | 7778 ft | 282 kts | 43° |
| 2026-05-07 19:42 | 40.41686 | -74.67834 | 7535 ft | 277 kts | 36° |
| 2026-05-07 19:42 | 40.43339 | -74.66649 | 7305 ft | 266 kts | 12° |
| 2026-05-07 19:42 | 40.45116 | -74.66114 | 7083 ft | 261 kts | 7° |
| 2026-05-07 19:42 | 40.46902 | -74.65660 | 6819 ft | 261 kts | 8° |
| 2026-05-07 19:43 | 40.48671 | -74.65210 | 6655 ft | 257 kts | 8° |
| 2026-05-07 19:43 | 40.50418 | -74.64760 | 6544 ft | 255 kts | 9° |
| 2026-05-07 19:43 | 40.52134 | -74.64311 | 6455 ft | 255 kts | 9° |
| 2026-05-07 19:43 | 40.53875 | -74.63850 | 6375 ft | 256 kts | 9° |
| 2026-05-07 19:44 | 40.55624 | -74.63385 | 6260 ft | 257 kts | 9° |
| 2026-05-07 19:44 | 40.57380 | -74.62919 | 6192 ft | 258 kts | 10° |
| 2026-05-07 19:44 | 40.59142 | -74.62447 | 6070 ft | 259 kts | 9° |
| 2026-05-07 19:44 | 40.60904 | -74.61974 | 5966 ft | 257 kts | 9° |
| 2026-05-07 19:45 | 40.62637 | -74.61508 | 5958 ft | 251 kts | 9° |
| 2026-05-07 19:45 | 40.64340 | -74.61032 | 5957 ft | 249 kts | 10° |
| 2026-05-07 19:45 | 40.66031 | -74.60568 | 5726 ft | 256 kts | 9° |
| 2026-05-07 19:45 | 40.67798 | -74.60105 | 5454 ft | 262 kts | 9° |
| 2026-05-07 19:46 | 40.69550 | -74.59644 | 5469 ft | 251 kts | 9° |
| 2026-05-07 19:46 | 40.71246 | -74.59190 | 5451 ft | 248 kts | 9° |
| 2026-05-07 19:46 | 40.72946 | -74.58739 | 5378 ft | 249 kts | 9° |
| 2026-05-07 19:46 | 40.74641 | -74.58285 | 5286 ft | 248 kts | 9° |
| 2026-05-07 19:47 | 40.76335 | -74.57825 | 5244 ft | 249 kts | 9° |
| 2026-05-07 19:47 | 40.78044 | -74.57367 | 5163 ft | 252 kts | 9° |
| 2026-05-07 19:47 | 40.79772 | -74.56900 | 5072 ft | 254 kts | 9° |
| 2026-05-07 19:47 | 40.81488 | -74.56435 | 4962 ft | 254 kts | 9° |
| 2026-05-07 19:48 | 40.83214 | -74.55957 | 4878 ft | 253 kts | 13° |
| 2026-05-07 19:48 | 40.84754 | -74.54851 | 4750 ft | 256 kts | 42° |
| 2026-05-07 19:48 | 40.85724 | -74.52917 | 4692 ft | 253 kts | 68° |
| 2026-05-07 19:48 | 40.86010 | -74.50654 | 4606 ft | 251 kts | 89° |
| 2026-05-07 19:49 | 40.85933 | -74.48345 | 4547 ft | 253 kts | 92° |
| 2026-05-07 19:49 | 40.85799 | -74.46016 | 4430 ft | 253 kts | 93° |
| 2026-05-07 19:49 | 40.85654 | -74.43712 | 4358 ft | 252 kts | 92° |
| 2026-05-07 19:49 | 40.85521 | -74.41448 | 4278 ft | 250 kts | 93° |
| 2026-05-07 19:50 | 40.85379 | -74.39155 | 4144 ft | 249 kts | 92° |
| 2026-05-07 19:50 | 40.85255 | -74.36904 | 4088 ft | 242 kts | 92° |
| 2026-05-07 19:50 | 40.85138 | -74.34708 | 3987 ft | 239 kts | 91° |
| 2026-05-07 19:50 | 40.85030 | -74.32494 | 3893 ft | 244 kts | 92° |
| 2026-05-07 19:51 | 40.84911 | -74.30259 | 3833 ft | 244 kts | 92° |
| 2026-05-07 19:51 | 40.84784 | -74.28027 | 3734 ft | 242 kts | 92° |
| 2026-05-07 19:51 | 40.84666 | -74.25822 | 3640 ft | 239 kts | 92° |
| 2026-05-07 19:51 | 40.84547 | -74.23670 | 3588 ft | 238 kts | 92° |
| 2026-05-07 19:52 | 40.84437 | -74.21448 | 3482 ft | 241 kts | 92° |
| 2026-05-07 19:52 | 40.84322 | -74.19275 | 3383 ft | 238 kts | 92° |
| 2026-05-07 19:52 | 40.84204 | -74.17100 | 3295 ft | 238 kts | 92° |
| 2026-05-07 19:52 | 40.84089 | -74.14934 | 3235 ft | 240 kts | 92° |
| 2026-05-07 19:53 | 40.83975 | -74.12764 | 3165 ft | 232 kts | 93° |
| 2026-05-07 19:53 | 40.83859 | -74.10692 | 3023 ft | 220 kts | 93° |
| 2026-05-07 19:53 | 40.83472 | -74.08819 | 2965 ft | 210 kts | 123° |
| 2026-05-07 19:53 | 40.82409 | -74.07605 | 2831 ft | 198 kts | 156° |
| 2026-05-07 19:54 | 40.81146 | -74.07161 | 2688 ft | 182 kts | 177° |
| 2026-05-07 19:54 | 40.79923 | -74.07083 | 2548 ft | 172 kts | 180° |
| 2026-05-07 19:54 | 40.78747 | -74.07054 | 2404 ft | 172 kts | 181° |
| 2026-05-07 19:54 | 40.77547 | -74.07023 | 2137 ft | 170 kts | 180° |
| 2026-05-07 19:55 | 40.76380 | -74.06990 | 1928 ft | 166 kts | 181° |
| 2026-05-07 19:55 | 40.75274 | -74.07331 | 1721 ft | 164 kts | 213° |
| 2026-05-07 19:55 | 40.74264 | -74.08065 | 1637 ft | 168 kts | 211° |
| 2026-05-07 19:55 | 40.73243 | -74.08748 | 1576 ft | 161 kts | 210° |
| 2026-05-07 19:56 | 40.72269 | -74.09396 | 1547 ft | 156 kts | 210° |
| 2026-05-07 19:56 | 40.71266 | -74.10071 | 1138 ft | 160 kts | 212° |
| 2026-05-07 19:56 | 40.70568 | -74.11025 | 948 ft | 139 kts | 255° |
| 2026-05-07 19:56 | 40.70385 | -74.12242 | 805 ft | 131 kts | 257° |
| 2026-05-07 19:57 | 40.70083 | -74.13430 | 604 ft | 144 kts | 258° |
| 2026-05-07 19:57 | 40.70019 | -74.14718 | 300 ft | 142 kts | 280° |
| 2026-05-07 19:57 | 40.70140 | -74.15999 | 35 ft | 140 kts | 281° |
| 2026-05-07 19:57 | 40.70219 | -74.17148 | 23 ft | 105 kts | 275° |
| 2026-05-07 19:58 | 40.70232 | -74.17679 | 29 ft | 32 kts | 253° |
| 2026-05-07 19:58 | 40.70178 | -74.17841 | 26 ft | 16 kts | 248° |
| 2026-05-07 19:58 | 40.70143 | -74.17917 | 27 ft | 8 kts | 205° |
| 2026-05-07 19:58 | 40.70085 | -74.17924 | 26 ft | 9 kts | 187° |
| 2026-05-07 19:59 | 40.70028 | -74.17964 | 22 ft | 11 kts | 216° |
| 2026-05-07 19:59 | 40.69956 | -74.17975 | 20 ft | 4 kts | 169° |
| 2026-05-07 19:59 | 40.69937 | -74.17970 | 21 ft | 3 kts | 169° |
| 2026-05-07 19:59 | 40.69920 | -74.17966 | 21 ft | 1 kts | 171° |